This is the latest recevied weather packets stored in our database for station/object SQ7FJB-10. If no packets are shown the sender has not sent any weather packets the latest 1 day(s).
| Time | Temp. | Humidity | Pressure | Rain* | Wind** | Luminosity | Snow |
|---|---|---|---|---|---|---|---|
| 1778089141 | 20.56° C | 54% | 1313 hPa | 0 mm | - | - | - |
| 1778085528 | 22.22° C | 47% | 1313.1 hPa | 0 mm | - | - | - |
| 1778081915 | 23.33° C | 42% | 1313.2 hPa | 0 mm | - | - | - |
| 1778076478 | 23.89° C | 40% | 1313.4 hPa | 0 mm | - | - | - |
| 1778069253 | 23.33° C | 41% | 1313.6 hPa | 0 mm | - | - | - |
| 1778065628 | 23.33° C | 44% | 1313.8 hPa | 0 mm | - | - | - |
| 1778062015 | 22.22° C | 47% | 1313.6 hPa | 0 mm | - | - | - |
| 1778056590 | 20.56° C | 50% | 1313.4 hPa | 0 mm | - | - | - |
| 1778052965 | 18.89° C | 56% | 1313.3 hPa | 0 mm | - | - | - |
| 1778051165 | 18.89° C | 56% | 1313.1 hPa | 0 mm | - | - | - |
| 1778049352 | 17.22° C | 60% | 1313 hPa | 0 mm | - | - | - |
| 1778047540 | 16.11° C | 63% | 1313 hPa | 0 mm | - | - | - |
| 1778045740 | 15.56° C | 63% | 1313 hPa | 0 mm | - | - | - |
| 1778042115 | 11.67° C | 68% | 1313.2 hPa | 0 mm | - | - | - |
| 1778040303 | 8.89° C | 73% | 1313.1 hPa | 0 mm | - | - | - |
| 1778036690 | 9.44° C | 70% | 1313.3 hPa | 0 mm | - | - | - |
| 1778034877 | 9.44° C | 73% | 1313.4 hPa | 0 mm | - | - | - |
| 1778033077 | 10° C | 70% | 1313.4 hPa | 0 mm | - | - | - |
| 1778031265 | 11.11° C | 69% | 1313.5 hPa | 0 mm | - | - | - |
| 1778029465 | 10.56° C | 65% | 1313.5 hPa | 0 mm | - | - | - |
| 1778024040 | 11.67° C | 60% | 1313.8 hPa | 0 mm | - | - | - |
| 1778018615 | 13.33° C | 47% | 1313.8 hPa | 0 mm | - | - | - |
| 1778011365 | 15° C | 45% | 1313.7 hPa | 0 mm | - | - | - |
* Rain latest hour (hover to see other rain measurements)
** Current wind speed in m/s (hover to see current wind gust speed)